Time;durP1;ratioP1;P1;durP2;ratioP2;P2;SDS_P1;SDS_P2;PMS_P1;PMS_P2;Temp;Humidity;BMP_temperature;BMP_pressure;BME280_temperature;BME280_humidity;BME280_pressure;Samples;Min_cycle;Max_cycle;Signal;HPM_P1;HPM_P2
2020/12/25 00:00:22;;;;;;;8.05;3.80;;;;;;;;;;5074805;28;20203;-71
2020/12/25 00:02:48;;;;;;;6.97;4.45;;;;;;;;;;5077535;28;20199;-72
2020/12/25 00:05:14;;;;;;;4.50;4.00;;;;;;;;;;5077852;28;20258;-72
2020/12/25 00:07:40;;;;;;;7.68;4.55;;;;;;;;;;5071237;28;21679;-72
2020/12/25 00:10:06;;;;;;;8.77;4.25;;;;;;;;;;5070156;28;20200;-73
2020/12/25 00:12:33;;;;;;;5.55;3.60;;;;;;;;;;5069419;28;20654;-72
2020/12/25 00:14:59;;;;;;;7.25;3.72;;;;;;;;;;5069318;28;20619;-73
2020/12/25 00:17:25;;;;;;;5.40;3.78;;;;;;;;;;5072388;28;20183;-71
2020/12/25 00:19:51;;;;;;;8.57;4.00;;;;;;;;;;5068692;28;20200;-72
2020/12/25 00:22:17;;;;;;;9.10;3.85;;;;;;;;;;5072024;28;20184;-72
2020/12/25 00:24:43;;;;;;;6.93;3.95;;;;;;;;;;5068524;28;20184;-72
2020/12/25 00:27:09;;;;;;;9.60;4.28;;;;;;;;;;5072720;28;20246;-72
2020/12/25 00:29:35;;;;;;;8.20;4.47;;;;;;;;;;5087555;28;20273;-72
2020/12/25 00:32:01;;;;;;;4.90;4.05;;;;;;;;;;5086147;28;20187;-72
2020/12/25 00:34:27;;;;;;;7.40;3.95;;;;;;;;;;5080690;28;20216;-72
2020/12/25 00:36:54;;;;;;;5.57;4.18;;;;;;;;;;5086670;28;20180;-72
2020/12/25 00:39:20;;;;;;;8.63;3.70;;;;;;;;;;5071923;28;20590;-73
2020/12/25 00:41:48;;;;;;;6.03;4.57;;;;;;;;;;5085085;28;20203;-72
2020/12/25 00:44:14;;;;;;;7.07;4.00;;;;;;;;;;5091909;28;20183;-73
2020/12/25 00:46:41;;;;;;;6.32;4.32;;;;;;;;;;5088612;28;20641;-72
2020/12/25 00:49:07;;;;;;;7.88;4.38;;;;;;;;;;5071700;28;20184;-72
2020/12/25 00:51:33;;;;;;;4.60;3.80;;;;;;;;;;5082663;28;20661;-72
2020/12/25 00:53:59;;;;;;;5.70;4.70;;;;;;;;;;5071488;28;20215;-72
2020/12/25 00:56:25;;;;;;;4.93;4.25;;;;;;;;;;5080690;28;20203;-72
2020/12/25 00:58:51;;;;;;;5.07;4.00;;;;;;;;;;5071709;28;20209;-72
2020/12/25 01:01:18;;;;;;;7.15;4.25;;;;;;;;;;5076928;28;20215;-73
2020/12/25 01:03:45;;;;;;;7.35;4.20;;;;;;;;;;5079549;28;20203;-72
2020/12/25 01:06:11;;;;;;;11.38;3.95;;;;;;;;;;5087530;28;20179;-73
2020/12/25 01:08:37;;;;;;;4.83;3.87;;;;;;;;;;5074592;28;20203;-72
2020/12/25 01:11:04;;;;;;;5.38;3.90;;;;;;;;;;5073492;28;20761;-72
2020/12/25 01:13:30;;;;;;;6.82;3.67;;;;;;;;;;5071129;28;20192;-73
2020/12/25 01:15:56;;;;;;;6.47;3.95;;;;;;;;;;5080248;28;20671;-72
2020/12/25 01:18:22;;;;;;;6.13;4.25;;;;;;;;;;5071259;28;20184;-72
2020/12/25 01:20:48;;;;;;;8.93;3.70;;;;;;;;;;5078335;28;20204;-73
2020/12/25 01:23:14;;;;;;;5.50;4.00;;;;;;;;;;5071160;28;20670;-72
2020/12/25 01:25:40;;;;;;;7.57;3.75;;;;;;;;;;5076192;28;20176;-72
2020/12/25 01:28:06;;;;;;;6.20;3.65;;;;;;;;;;5069068;28;20563;-73
2020/12/25 01:30:32;;;;;;;8.40;3.95;;;;;;;;;;5083901;28;20200;-73
2020/12/25 01:32:58;;;;;;;5.68;3.80;;;;;;;;;;5071040;28;20668;-72
2020/12/25 01:35:24;;;;;;;5.10;3.83;;;;;;;;;;5083487;28;20207;-73
2020/12/25 01:37:50;;;;;;;3.97;3.58;;;;;;;;;;5091205;28;20175;-73
2020/12/25 01:40:16;;;;;;;3.90;3.40;;;;;;;;;;5088408;28;20695;-72
2020/12/25 01:42:42;;;;;;;7.38;3.80;;;;;;;;;;5074560;28;20184;-72
2020/12/25 01:45:08;;;;;;;4.95;3.50;;;;;;;;;;5079704;28;20180;-71
2020/12/25 01:47:34;;;;;;;5.85;3.30;;;;;;;;;;5093427;28;20183;-74
2020/12/25 01:50:00;;;;;;;6.88;3.83;;;;;;;;;;5093531;28;20225;-73
2020/12/25 01:52:26;;;;;;;10.23;3.97;;;;;;;;;;5086580;28;20605;-74
2020/12/25 01:54:53;;;;;;;5.15;3.10;;;;;;;;;;5074407;28;20586;-73
2020/12/25 01:57:20;;;;;;;6.20;3.45;;;;;;;;;;5072993;28;20181;-72
2020/12/25 01:59:46;;;;;;;7.95;4.40;;;;;;;;;;5074067;28;20204;-73
2020/12/25 02:02:12;;;;;;;8.80;3.97;;;;;;;;;;5074254;28;20222;-72
2020/12/25 02:04:38;;;;;;;8.52;3.22;;;;;;;;;;5076332;28;20584;-72
2020/12/25 02:07:04;;;;;;;5.63;3.40;;;;;;;;;;5076692;28;20286;-73
2020/12/25 02:09:30;;;;;;;6.72;3.72;;;;;;;;;;5095735;28;20683;-71
2020/12/25 02:11:56;;;;;;;8.40;4.10;;;;;;;;;;5074163;28;20199;-72
2020/12/25 02:14:22;;;;;;;7.65;3.70;;;;;;;;;;5073739;28;20200;-72
2020/12/25 02:16:48;;;;;;;8.88;3.85;;;;;;;;;;5074179;28;20215;-72
2020/12/25 02:19:14;;;;;;;5.32;3.60;;;;;;;;;;5073981;28;20201;-71
2020/12/25 02:21:40;;;;;;;11.00;4.05;;;;;;;;;;5082612;28;20175;-72
2020/12/25 02:24:08;;;;;;;8.02;4.18;;;;;;;;;;5093559;28;20171;-72
2020/12/25 02:26:34;;;;;;;6.47;3.60;;;;;;;;;;5093856;28;20184;-73
2020/12/25 02:29:00;;;;;;;6.97;4.25;;;;;;;;;;5091549;28;20180;-72
2020/12/25 02:31:26;;;;;;;4.97;3.55;;;;;;;;;;5079803;28;20548;-72
2020/12/25 02:33:52;;;;;;;6.72;3.80;;;;;;;;;;5093272;28;20203;-72
2020/12/25 02:36:18;;;;;;;7.45;3.78;;;;;;;;;;5093823;28;20171;-73
2020/12/25 02:38:44;;;;;;;13.88;4.07;;;;;;;;;;5093895;28;20619;-73
2020/12/25 02:41:10;;;;;;;7.43;3.47;;;;;;;;;;5093710;28;20230;-73
2020/12/25 02:43:36;;;;;;;6.72;3.60;;;;;;;;;;5083007;28;20191;-73
2020/12/25 02:46:02;;;;;;;7.15;3.75;;;;;;;;;;5074706;28;20175;-73
2020/12/25 02:48:28;;;;;;;7.70;4.45;;;;;;;;;;5073814;28;20241;-72
2020/12/25 02:50:54;;;;;;;6.50;3.35;;;;;;;;;;5073573;28;20209;-73
2020/12/25 02:53:20;;;;;;;5.63;3.30;;;;;;;;;;5073982;28;20180;-72
2020/12/25 02:55:46;;;;;;;5.03;3.60;;;;;;;;;;5079250;28;20201;-73
2020/12/25 02:58:12;;;;;;;4.57;2.85;;;;;;;;;;5093489;28;20171;-73
2020/12/25 03:00:38;;;;;;;6.35;3.13;;;;;;;;;;5093598;28;20248;-73
2020/12/25 03:03:04;;;;;;;4.07;2.30;;;;;;;;;;5093527;28;20202;-73
2020/12/25 03:05:30;;;;;;;11.23;3.05;;;;;;;;;;5093054;28;20276;-72
2020/12/25 03:07:56;;;;;;;5.45;3.47;;;;;;;;;;5080412;28;20294;-73
2020/12/25 03:10:22;;;;;;;8.30;2.80;;;;;;;;;;5090613;28;20200;-72
2020/12/25 03:12:48;;;;;;;11.23;3.30;;;;;;;;;;5080367;28;20180;-72
2020/12/25 03:15:14;;;;;;;5.55;2.53;;;;;;;;;;5073792;28;20207;-72
2020/12/25 03:17:40;;;;;;;6.72;2.67;;;;;;;;;;5073244;28;20258;-72
2020/12/25 03:20:06;;;;;;;11.50;2.83;;;;;;;;;;5080043;28;20199;-72
2020/12/25 03:22:32;;;;;;;9.82;2.42;;;;;;;;;;5080009;28;20175;-72
2020/12/25 03:24:58;;;;;;;6.03;2.60;;;;;;;;;;5081301;28;20183;-70
2020/12/25 03:27:24;;;;;;;4.43;2.88;;;;;;;;;;5091062;28;20668;-72
2020/12/25 03:29:50;;;;;;;5.47;2.95;;;;;;;;;;5089389;28;20240;-72
2020/12/25 03:32:16;;;;;;;4.45;2.70;;;;;;;;;;5092579;28;20179;-72
2020/12/25 03:34:42;;;;;;;6.45;2.50;;;;;;;;;;5073145;28;20253;-73
2020/12/25 03:37:08;;;;;;;10.52;3.10;;;;;;;;;;5072845;28;20176;-72
2020/12/25 03:39:34;;;;;;;5.13;2.45;;;;;;;;;;5086351;28;20207;-72
2020/12/25 03:42:00;;;;;;;6.35;3.08;;;;;;;;;;5072632;28;20541;-73
2020/12/25 03:44:26;;;;;;;6.97;2.70;;;;;;;;;;5086897;28;20188;-73
2020/12/25 03:46:52;;;;;;;6.43;2.83;;;;;;;;;;5092857;28;20761;-72
2020/12/25 03:49:18;;;;;;;7.55;4.97;;;;;;;;;;5077963;28;20284;-73
2020/12/25 03:51:44;;;;;;;9.95;3.75;;;;;;;;;;5082220;28;20219;-73
2020/12/25 03:54:10;;;;;;;4.90;2.97;;;;;;;;;;5086225;28;20224;-73
2020/12/25 03:56:36;;;;;;;7.00;3.92;;;;;;;;;;5086793;28;20256;-73
2020/12/25 03:59:02;;;;;;;6.53;2.88;;;;;;;;;;5085167;28;20171;-72
2020/12/25 04:01:28;;;;;;;4.78;2.53;;;;;;;;;;5093071;28;20179;-72
2020/12/25 04:03:54;;;;;;;6.80;2.70;;;;;;;;;;5094214;28;20183;-71
2020/12/25 04:06:20;;;;;;;4.18;2.50;;;;;;;;;;5095630;28;20179;-71
2020/12/25 04:08:46;;;;;;;3.80;2.60;;;;;;;;;;5090937;28;20188;-73
2020/12/25 04:11:12;;;;;;;8.25;3.33;;;;;;;;;;5099175;28;20195;-72
2020/12/25 04:13:38;;;;;;;7.10;2.85;;;;;;;;;;5096117;28;20183;-72
2020/12/25 04:16:04;;;;;;;7.43;2.92;;;;;;;;;;5090408;28;20270;-72
2020/12/25 04:18:30;;;;;;;5.55;2.53;;;;;;;;;;5096199;28;20221;-73
2020/12/25 04:20:57;;;;;;;5.55;3.33;;;;;;;;;;5082340;28;20673;-71
2020/12/25 04:23:23;;;;;;;6.55;3.20;;;;;;;;;;5081326;28;20180;-72
2020/12/25 04:25:49;;;;;;;8.07;2.70;;;;;;;;;;5095850;28;20176;-73
2020/12/25 04:28:15;;;;;;;3.28;2.55;;;;;;;;;;5095766;28;20258;-72
2020/12/25 04:30:41;;;;;;;8.60;2.92;;;;;;;;;;5096234;28;20196;-73
2020/12/25 04:33:09;;;;;;;7.22;3.20;;;;;;;;;;5089248;28;20180;-72
2020/12/25 04:35:35;;;;;;;9.43;2.72;;;;;;;;;;5075514;28;20245;-71
2020/12/25 04:38:01;;;;;;;13.07;2.33;;;;;;;;;;5075664;28;20702;-72
2020/12/25 04:40:27;;;;;;;5.28;2.80;;;;;;;;;;5075508;28;20188;-73
2020/12/25 04:42:55;;;;;;;6.63;2.50;;;;;;;;;;5075667;28;20176;-72
2020/12/25 04:45:21;;;;;;;8.57;3.60;;;;;;;;;;5087586;28;20179;-72
2020/12/25 04:47:47;;;;;;;7.65;2.85;;;;;;;;;;5081302;28;20179;-72
2020/12/25 04:50:14;;;;;;;4.05;2.85;;;;;;;;;;5095852;28;20196;-72
2020/12/25 04:52:40;;;;;;;5.80;3.03;;;;;;;;;;5095879;28;20206;-73
2020/12/25 04:55:06;;;;;;;6.15;2.55;;;;;;;;;;5090672;28;20195;-72
2020/12/25 04:57:33;;;;;;;4.32;2.45;;;;;;;;;;5095881;28;20183;-72
2020/12/25 04:59:59;;;;;;;6.63;2.45;;;;;;;;;;5095870;28;20199;-73
2020/12/25 05:02:25;;;;;;;8.43;3.50;;;;;;;;;;5096030;28;20676;-71
2020/12/25 05:04:51;;;;;;;3.28;2.30;;;;;;;;;;5081437;28;20188;-72
2020/12/25 05:07:18;;;;;;;5.40;2.28;;;;;;;;;;5095644;28;20188;-72
2020/12/25 05:09:44;;;;;;;7.20;2.70;;;;;;;;;;5101821;28;20203;-73
2020/12/25 05:12:11;;;;;;;6.10;2.58;;;;;;;;;;5075484;28;20229;-73
2020/12/25 05:14:41;;;;;;;6.18;2.70;;;;;;;;;;5073849;28;20557;-73
2020/12/25 05:17:09;;;;;;;8.90;2.70;;;;;;;;;;5074828;28;20226;-73
2020/12/25 05:19:35;;;;;;;6.53;2.60;;;;;;;;;;5074967;28;20192;-73
2020/12/25 05:22:01;;;;;;;5.70;2.60;;;;;;;;;;5079881;28;20180;-73
2020/12/25 05:24:34;;;;;;;3.95;2.22;;;;;;;;;;5074656;28;20203;-72
2020/12/25 05:27:00;;;;;;;5.43;2.70;;;;;;;;;;5084609;28;20179;-73
2020/12/25 05:29:31;;;;;;;6.43;2.80;;;;;;;;;;5092039;28;20673;-73
2020/12/25 05:31:57;;;;;;;6.90;2.97;;;;;;;;;;5085260;28;20179;-73
2020/12/25 05:34:23;;;;;;;4.85;2.35;;;;;;;;;;5092110;28;20257;-72
2020/12/25 05:36:53;;;;;;;7.80;2.70;;;;;;;;;;5095081;28;20692;-73
2020/12/25 05:39:41;;;;;;;6.20;2.50;;;;;;;;;;5091075;28;20200;-73
2020/12/25 05:42:09;;;;;;;4.68;2.17;;;;;;;;;;5094616;28;20663;-73
2020/12/25 05:44:44;;;;;;;8.30;2.50;;;;;;;;;;5086963;28;20300;-72
2020/12/25 05:47:13;;;;;;;4.38;2.47;;;;;;;;;;5074440;28;20234;-72
2020/12/25 05:49:39;;;;;;;5.47;2.35;;;;;;;;;;5093910;28;20333;-73
2020/12/25 05:52:05;;;;;;;5.35;2.00;;;;;;;;;;5091275;28;20662;-72
2020/12/25 05:54:31;;;;;;;5.60;2.20;;;;;;;;;;5094110;28;20199;-73
2020/12/25 05:56:58;;;;;;;5.32;2.25;;;;;;;;;;5092051;28;20175;-72
2020/12/25 05:59:24;;;;;;;5.10;2.03;;;;;;;;;;5074172;28;20676;-73
2020/12/25 06:01:53;;;;;;;4.10;2.40;;;;;;;;;;5091548;28;20190;-73
2020/12/25 06:04:19;;;;;;;8.07;2.60;;;;;;;;;;5094015;28;20175;-72
2020/12/25 06:06:46;;;;;;;3.60;2.15;;;;;;;;;;5094327;28;20270;-73
2020/12/25 06:09:16;;;;;;;8.85;2.83;;;;;;;;;;5097746;28;20591;-73
2020/12/25 06:11:45;;;;;;;4.57;1.90;;;;;;;;;;5079479;28;20192;-72
2020/12/25 06:14:11;;;;;;;4.85;2.20;;;;;;;;;;5092404;28;20203;-73
2020/12/25 06:16:39;;;;;;;4.68;1.92;;;;;;;;;;5094440;28;20701;-72
2020/12/25 06:19:08;;;;;;;2.72;1.90;;;;;;;;;;5094077;28;20175;-72
2020/12/25 06:21:41;;;;;;;8.27;3.40;;;;;;;;;;5094292;28;20175;-73
2020/12/25 06:24:09;;;;;;;8.35;2.20;;;;;;;;;;5092523;28;20190;-72
2020/12/25 06:26:36;;;;;;;5.20;1.92;;;;;;;;;;5093800;28;20187;-73
2020/12/25 06:29:03;;;;;;;6.05;2.20;;;;;;;;;;5093836;28;20298;-72
2020/12/25 06:31:42;;;;;;;4.35;2.38;;;;;;;;;;5093526;28;20175;-72
2020/12/25 06:34:09;;;;;;;3.50;2.10;;;;;;;;;;5093201;28;20207;-73
2020/12/25 06:36:35;;;;;;;5.70;2.33;;;;;;;;;;5093968;28;20266;-72
2020/12/25 06:39:05;;;;;;;4.68;1.85;;;;;;;;;;5092345;28;20214;-72
2020/12/25 06:41:34;;;;;;;5.65;2.00;;;;;;;;;;5092446;28;20183;-73
2020/12/25 06:44:00;;;;;;;7.65;2.10;;;;;;;;;;5093237;28;20183;-71
2020/12/25 06:46:33;;;;;;;5.55;1.83;;;;;;;;;;5093206;28;20540;-72
2020/12/25 06:49:00;;;;;;;2.90;1.92;;;;;;;;;;5089810;28;20258;-74
2020/12/25 06:51:27;;;;;;;4.95;2.30;;;;;;;;;;5073415;28;20187;-72
2020/12/25 06:53:56;;;;;;;4.50;1.77;;;;;;;;;;5073047;28;20285;-73
2020/12/25 06:56:22;;;;;;;9.43;3.03;;;;;;;;;;5084216;28;20232;-73
2020/12/25 06:58:48;;;;;;;4.90;1.88;;;;;;;;;;5093187;28;20172;-73
2020/12/25 07:01:15;;;;;;;4.55;2.15;;;;;;;;;;5082463;28;20203;-73
2020/12/25 07:03:41;;;;;;;8.10;2.28;;;;;;;;;;5082778;28;20232;-73
2020/12/25 07:06:11;;;;;;;6.07;1.70;;;;;;;;;;5093326;28;20179;-72
2020/12/25 07:08:45;;;;;;;5.68;2.00;;;;;;;;;;5093115;28;20200;-74
2020/12/25 07:11:12;;;;;;;3.80;1.85;;;;;;;;;;5087456;28;20203;-72
2020/12/25 07:13:38;;;;;;;8.38;2.17;;;;;;;;;;5072609;28;20188;-72
2020/12/25 07:16:05;;;;;;;4.78;2.13;;;;;;;;;;5084429;28;20199;-73
2020/12/25 07:18:32;;;;;;;4.38;1.75;;;;;;;;;;5093590;28;20179;-72
2020/12/25 07:21:02;;;;;;;3.58;2.08;;;;;;;;;;5093376;28;20298;-72
2020/12/25 07:23:28;;;;;;;4.70;2.28;;;;;;;;;;5093305;28;20163;-72
2020/12/25 07:25:58;;;;;;;9.52;2.33;;;;;;;;;;5092677;28;20579;-71
2020/12/25 07:28:25;;;;;;;4.65;1.92;;;;;;;;;;5093380;28;20187;-73
2020/12/25 07:30:52;;;;;;;3.10;1.88;;;;;;;;;;5079434;28;20223;-73
2020/12/25 07:33:18;;;;;;;4.35;2.33;;;;;;;;;;5093022;28;20179;-73
2020/12/25 07:35:44;;;;;;;4.32;2.17;;;;;;;;;;5092515;28;20203;-73
2020/12/25 07:38:12;;;;;;;6.35;2.25;;;;;;;;;;5094838;28;20176;-71
2020/12/25 07:40:39;;;;;;;3.00;1.90;;;;;;;;;;5099655;28;20198;-73
2020/12/25 07:43:05;;;;;;;3.50;1.70;;;;;;;;;;5099700;28;20185;-72
2020/12/25 07:45:34;;;;;;;4.35;1.75;;;;;;;;;;5099188;28;20257;-72
2020/12/25 07:48:01;;;;;;;4.82;1.83;;;;;;;;;;5099734;28;20541;-71
2020/12/25 07:50:27;;;;;;;6.97;2.70;;;;;;;;;;5099483;28;20195;-75
2020/12/25 07:52:54;;;;;;;5.40;2.05;;;;;;;;;;5091020;28;20186;-72
2020/12/25 07:55:23;;;;;;;2.97;1.70;;;;;;;;;;5079513;28;20214;-74
2020/12/25 07:57:51;;;;;;;5.32;1.90;;;;;;;;;;5099681;28;20187;-72
2020/12/25 08:00:17;;;;;;;3.40;1.50;;;;;;;;;;5099278;28;20200;-73
2020/12/25 08:02:43;;;;;;;5.95;1.70;;;;;;;;;;5100294;28;20189;-71
2020/12/25 08:05:10;;;;;;;5.53;1.70;;;;;;;;;;5098970;28;20256;-72
2020/12/25 08:07:42;;;;;;;5.25;1.77;;;;;;;;;;5099579;28;20187;-71
2020/12/25 08:10:10;;;;;;;5.38;2.00;;;;;;;;;;5103758;28;20225;-73
2020/12/25 08:12:37;;;;;;;3.45;1.90;;;;;;;;;;5079352;28;20180;-71
2020/12/25 08:15:03;;;;;;;5.25;1.92;;;;;;;;;;5078437;28;20204;-72
2020/12/25 08:17:29;;;;;;;4.13;2.90;;;;;;;;;;5079080;28;20579;-71
2020/12/25 08:19:55;;;;;;;7.95;2.17;;;;;;;;;;5079448;28;20201;-73
2020/12/25 08:22:21;;;;;;;3.03;1.90;;;;;;;;;;5078926;28;20529;-73
2020/12/25 08:24:47;;;;;;;2.97;1.88;;;;;;;;;;5078711;28;20172;-72
2020/12/25 08:27:16;;;;;;;3.05;1.90;;;;;;;;;;5079434;28;20190;-73
2020/12/25 08:29:42;;;;;;;4.50;1.92;;;;;;;;;;5091497;28;20196;-74
2020/12/25 08:32:09;;;;;;;3.47;2.38;;;;;;;;;;5090724;28;20317;-74
2020/12/25 08:34:36;;;;;;;4.25;2.15;;;;;;;;;;5098735;28;20222;-73
2020/12/25 08:37:07;;;;;;;4.32;1.55;;;;;;;;;;5097978;28;20662;-72
2020/12/25 08:39:33;;;;;;;7.05;2.33;;;;;;;;;;5099145;28;20274;-73
2020/12/25 08:41:59;;;;;;;5.38;2.42;;;;;;;;;;5099508;28;20175;-73
2020/12/25 08:44:25;;;;;;;4.20;2.08;;;;;;;;;;5098684;28;20179;-71
2020/12/25 08:47:05;;;;;;;4.75;2.10;;;;;;;;;;5099283;28;20575;-72
2020/12/25 08:49:31;;;;;;;4.95;2.03;;;;;;;;;;5098305;28;20206;-73
2020/12/25 08:51:57;;;;;;;3.28;2.10;;;;;;;;;;5094254;28;20584;-73
2020/12/25 08:54:30;;;;;;;4.85;2.60;;;;;;;;;;5075051;28;20200;-73
2020/12/25 08:56:56;;;;;;;3.88;2.22;;;;;;;;;;5091441;28;20262;-72
2020/12/25 08:59:22;;;;;;;3.83;1.85;;;;;;;;;;5095711;28;20241;-73
2020/12/25 09:01:49;;;;;;;3.72;2.05;;;;;;;;;;5081985;28;20525;-75
2020/12/25 09:04:16;;;;;;;4.20;2.00;;;;;;;;;;5094101;28;20618;-72
2020/12/25 09:06:43;;;;;;;5.72;2.10;;;;;;;;;;5079395;28;20184;-72
2020/12/25 09:09:09;;;;;;;3.58;1.63;;;;;;;;;;5084397;28;20190;-73
2020/12/25 09:11:35;;;;;;;5.25;2.63;;;;;;;;;;5087600;28;20179;-71
2020/12/25 09:14:01;;;;;;;5.43;1.98;;;;;;;;;;5090673;28;20178;-71
2020/12/25 09:16:27;;;;;;;4.18;1.92;;;;;;;;;;5095255;28;20548;-73
2020/12/25 09:18:53;;;;;;;4.55;2.25;;;;;;;;;;5085755;28;20200;-72
2020/12/25 09:21:19;;;;;;;5.25;1.80;;;;;;;;;;5077651;28;20255;-71
2020/12/25 09:23:46;;;;;;;3.83;2.10;;;;;;;;;;5095896;28;20197;-72
2020/12/25 09:26:12;;;;;;;3.20;1.83;;;;;;;;;;5077029;28;20184;-73
2020/12/25 09:28:39;;;;;;;4.25;2.33;;;;;;;;;;5083473;28;20182;-73
2020/12/25 09:31:05;;;;;;;3.78;1.80;;;;;;;;;;5095117;28;20548;-72
2020/12/25 09:33:32;;;;;;;3.63;1.85;;;;;;;;;;5094658;28;20186;-73
2020/12/25 09:35:58;;;;;;;3.60;2.00;;;;;;;;;;5078773;28;20208;-73
2020/12/25 09:38:24;;;;;;;4.07;2.20;;;;;;;;;;5075152;28;20172;-73
2020/12/25 09:40:51;;;;;;;2.38;1.60;;;;;;;;;;5085360;28;20215;-73
2020/12/25 09:43:17;;;;;;;29.95;13.95;;;;;;;;;;5087014;28;20179;-74
2020/12/25 09:45:43;;;;;;;4.93;3.25;;;;;;;;;;5075907;28;20184;-73
2020/12/25 09:48:09;;;;;;;3.00;2.22;;;;;;;;;;5078067;28;20324;-73
2020/12/25 09:50:35;;;;;;;4.95;2.50;;;;;;;;;;5074329;28;20203;-73
2020/12/25 09:53:01;;;;;;;4.18;2.08;;;;;;;;;;5074151;28;20168;-73
2020/12/25 09:55:27;;;;;;;12.45;9.13;;;;;;;;;;5090374;28;20218;-73
2020/12/25 09:57:54;;;;;;;17.40;10.10;;;;;;;;;;5094732;28;20178;-72
2020/12/25 10:00:20;;;;;;;9.95;6.90;;;;;;;;;;5089256;28;20544;-74
2020/12/25 10:02:46;;;;;;;4.10;2.15;;;;;;;;;;5073526;28;20251;-73
2020/12/25 10:05:12;;;;;;;4.05;2.60;;;;;;;;;;5073750;28;20284;-73
2020/12/25 10:07:39;;;;;;;3.72;2.55;;;;;;;;;;5073940;28;20599;-73
2020/12/25 10:10:08;;;;;;;4.82;1.77;;;;;;;;;;5084357;28;20204;-73
2020/12/25 10:12:35;;;;;;;3.97;2.20;;;;;;;;;;5074149;28;20180;-73
2020/12/25 10:15:01;;;;;;;3.75;2.20;;;;;;;;;;5073825;28;20196;-72
2020/12/25 10:17:27;;;;;;;4.53;3.10;;;;;;;;;;5074024;28;20256;-72
2020/12/25 10:19:53;;;;;;;3.58;2.47;;;;;;;;;;5080315;28;20195;-72
2020/12/25 10:22:19;;;;;;;3.17;2.00;;;;;;;;;;5094158;28;20182;-72
2020/12/25 10:24:45;;;;;;;19.73;10.93;;;;;;;;;;5093973;28;20172;-72
2020/12/25 10:27:11;;;;;;;27.63;18.00;;;;;;;;;;5094018;28;20183;-71
2020/12/25 10:29:37;;;;;;;18.45;10.45;;;;;;;;;;5087857;28;20192;-73
2020/12/25 10:32:03;;;;;;;19.58;12.63;;;;;;;;;;5083658;28;20549;-72
2020/12/25 10:34:29;;;;;;;7.70;4.90;;;;;;;;;;5093405;28;20203;-73
2020/12/25 10:36:55;;;;;;;3.65;2.40;;;;;;;;;;5093784;28;20175;-73
2020/12/25 10:39:21;;;;;;;4.82;3.10;;;;;;;;;;5093711;28;20232;-74
2020/12/25 10:41:47;;;;;;;13.55;9.27;;;;;;;;;;5093951;28;20230;-73
2020/12/25 10:44:13;;;;;;;17.45;9.48;;;;;;;;;;5093296;28;20183;-73
2020/12/25 10:46:39;;;;;;;25.45;17.67;;;;;;;;;;5093657;28;20191;-72
2020/12/25 10:49:05;;;;;;;14.65;9.75;;;;;;;;;;5093562;28;20179;-72
2020/12/25 10:51:31;;;;;;;4.90;2.22;;;;;;;;;;5093527;28;20624;-72
2020/12/25 10:53:57;;;;;;;11.48;7.25;;;;;;;;;;5093057;28;20179;-72
2020/12/25 10:56:24;;;;;;;5.43;2.37;;;;;;;;;;5089897;28;20220;-72
2020/12/25 10:58:50;;;;;;;9.15;4.68;;;;;;;;;;5093682;28;20426;-73
2020/12/25 11:01:34;;;;;;;3.92;1.85;;;;;;;;;;5093705;28;20191;-73
2020/12/25 11:04:00;;;;;;;3.30;1.80;;;;;;;;;;5093080;28;20171;-73
2020/12/25 11:06:32;;;;;;;7.63;3.95;;;;;;;;;;5093265;28;20171;-73
2020/12/25 11:08:58;;;;;;;3.45;2.08;;;;;;;;;;5094633;28;20227;-73
2020/12/25 11:11:24;;;;;;;3.20;1.60;;;;;;;;;;5083643;28;20177;-73
2020/12/25 11:13:51;;;;;;;3.17;1.80;;;;;;;;;;5071913;28;20211;-72
2020/12/25 11:16:25;;;;;;;5.72;2.83;;;;;;;;;;5073019;28;20646;-73
2020/12/25 11:18:52;;;;;;;2.65;1.95;;;;;;;;;;5072953;28;20176;-72
2020/12/25 11:21:27;;;;;;;3.38;2.00;;;;;;;;;;5073496;28;20633;-72
2020/12/25 11:23:54;;;;;;;3.67;2.00;;;;;;;;;;5072626;28;20176;-73
2020/12/25 11:26:24;;;;;;;4.90;2.00;;;;;;;;;;5072961;28;20221;-73
2020/12/25 11:28:51;;;;;;;4.15;2.05;;;;;;;;;;5083409;28;20176;-73
2020/12/25 11:31:18;;;;;;;3.95;2.40;;;;;;;;;;5093079;28;20529;-73
2020/12/25 11:33:44;;;;;;;5.28;2.05;;;;;;;;;;5092936;28;20531;-73
2020/12/25 11:36:14;;;;;;;4.60;1.90;;;;;;;;;;5091696;28;20199;-73
2020/12/25 11:38:40;;;;;;;5.55;2.13;;;;;;;;;;5092933;28;20258;-73
2020/12/25 11:41:07;;;;;;;3.58;2.20;;;;;;;;;;5092966;28;20218;-72
2020/12/25 11:43:33;;;;;;;3.47;1.98;;;;;;;;;;5092439;28;20195;-72
2020/12/25 11:45:59;;;;;;;4.35;1.88;;;;;;;;;;5091431;28;20190;-74
2020/12/25 11:48:25;;;;;;;3.45;2.50;;;;;;;;;;5092788;28;20527;-73
2020/12/25 11:50:51;;;;;;;7.60;4.25;;;;;;;;;;5092892;28;20560;-72
2020/12/25 11:53:17;;;;;;;2.95;1.90;;;;;;;;;;5092903;28;20175;-72
2020/12/25 11:55:44;;;;;;;4.45;3.15;;;;;;;;;;5088042;28;20205;-73
2020/12/25 11:58:10;;;;;;;6.28;3.72;;;;;;;;;;5092650;28;20179;-72
2020/12/25 12:00:36;;;;;;;13.18;8.27;;;;;;;;;;5092951;28;20192;-72
2020/12/25 12:03:02;;;;;;;6.80;4.25;;;;;;;;;;5092954;28;20173;-72
2020/12/25 12:05:28;;;;;;;5.63;3.38;;;;;;;;;;5092548;28;20203;-72
2020/12/25 12:07:53;;;;;;;5.23;3.67;;;;;;;;;;5092458;28;20702;-74
2020/12/25 12:10:20;;;;;;;7.93;5.20;;;;;;;;;;5094011;28;20427;-72
2020/12/25 12:12:46;;;;;;;3.30;2.00;;;;;;;;;;5072613;28;20410;-73
2020/12/25 12:15:12;;;;;;;5.28;1.70;;;;;;;;;;5072000;28;20211;-72
2020/12/25 12:17:38;;;;;;;3.53;2.08;;;;;;;;;;5072666;28;20195;-73
2020/12/25 12:20:04;;;;;;;4.18;1.80;;;;;;;;;;5072173;28;20249;-75
2020/12/25 12:22:30;;;;;;;3.15;1.73;;;;;;;;;;5085459;28;20168;-73
2020/12/25 12:24:56;;;;;;;2.85;1.50;;;;;;;;;;5092559;28;20521;-72
2020/12/25 12:27:22;;;;;;;3.40;2.00;;;;;;;;;;5096412;28;20207;-72
2020/12/25 12:29:48;;;;;;;3.13;1.70;;;;;;;;;;5089557;28;20282;-73
2020/12/25 12:32:14;;;;;;;2.33;1.63;;;;;;;;;;5088602;28;20207;-73
2020/12/25 12:34:40;;;;;;;3.55;1.63;;;;;;;;;;5095763;28;20329;-73
2020/12/25 12:37:06;;;;;;;2.88;1.70;;;;;;;;;;5096483;28;20201;-73
2020/12/25 12:39:32;;;;;;;3.30;1.90;;;;;;;;;;5096138;28;20196;-73
2020/12/25 12:41:58;;;;;;;3.20;1.80;;;;;;;;;;5096417;28;20195;-72
2020/12/25 12:44:25;;;;;;;5.40;2.05;;;;;;;;;;5095792;28;20505;-72
2020/12/25 12:46:55;;;;;;;3.42;1.58;;;;;;;;;;5096286;28;20579;-73
2020/12/25 12:49:22;;;;;;;3.20;1.80;;;;;;;;;;5095893;28;20551;-73
2020/12/25 12:51:48;;;;;;;2.83;1.70;;;;;;;;;;5096472;28;20179;-72
2020/12/25 12:54:14;;;;;;;4.15;2.17;;;;;;;;;;5095247;28;20210;-72
2020/12/25 12:56:40;;;;;;;4.97;2.15;;;;;;;;;;5091873;28;20178;-74
2020/12/25 12:59:06;;;;;;;4.90;1.83;;;;;;;;;;5095902;28;20537;-72
2020/12/25 13:01:32;;;;;;;7.93;2.13;;;;;;;;;;5094367;28;20180;-73
2020/12/25 13:03:58;;;;;;;2.63;1.92;;;;;;;;;;5095752;28;20423;-73
2020/12/25 13:06:24;;;;;;;2.75;1.95;;;;;;;;;;5094441;28;20183;-73
2020/12/25 13:08:50;;;;;;;3.33;1.70;;;;;;;;;;5096030;28;20318;-73
2020/12/25 13:11:23;;;;;;;2.63;2.03;;;;;;;;;;5102417;28;20433;-73
2020/12/25 13:13:49;;;;;;;3.08;2.50;;;;;;;;;;5095214;28;20991;-71
2020/12/25 13:16:19;;;;;;;4.47;2.20;;;;;;;;;;5095801;28;20230;-72
2020/12/25 13:18:45;;;;;;;4.43;2.30;;;;;;;;;;5095318;28;20409;-73
2020/12/25 13:21:17;;;;;;;5.65;2.15;;;;;;;;;;5095537;28;20199;-74
2020/12/25 13:23:44;;;;;;;5.05;2.50;;;;;;;;;;5095066;28;20171;-74
2020/12/25 13:26:10;;;;;;;4.10;2.58;;;;;;;;;;5095627;28;20199;-73
2020/12/25 13:28:36;;;;;;;2.80;1.92;;;;;;;;;;5095209;28;20206;-73
2020/12/25 13:31:03;;;;;;;4.83;3.03;;;;;;;;;;5095150;28;20311;-72
2020/12/25 13:33:29;;;;;;;3.85;1.92;;;;;;;;;;5094898;28;20414;-73
2020/12/25 13:35:56;;;;;;;4.50;3.10;;;;;;;;;;5094132;28;20202;-73
2020/12/25 13:38:22;;;;;;;3.38;2.10;;;;;;;;;;5095407;28;20255;-73
2020/12/25 13:40:48;;;;;;;2.83;1.70;;;;;;;;;;5094861;28;20253;-72
2020/12/25 13:43:14;;;;;;;5.75;2.53;;;;;;;;;;5095072;28;20175;-75
2020/12/25 13:45:40;;;;;;;3.20;1.70;;;;;;;;;;5094465;28;20186;-73
2020/12/25 13:48:06;;;;;;;3.50;2.45;;;;;;;;;;5095009;28;20180;-71
2020/12/25 13:50:32;;;;;;;7.03;3.47;;;;;;;;;;5092055;28;20264;-71
2020/12/25 13:52:58;;;;;;;8.35;4.40;;;;;;;;;;5084848;28;20552;-73
2020/12/25 13:55:24;;;;;;;5.32;1.80;;;;;;;;;;5090225;28;20210;-74
2020/12/25 13:57:51;;;;;;;5.40;3.78;;;;;;;;;;5094752;28;20202;-74
2020/12/25 14:00:17;;;;;;;3.35;2.00;;;;;;;;;;5091368;28;20651;-74
2020/12/25 14:02:43;;;;;;;4.30;2.40;;;;;;;;;;5083224;28;20214;-74
2020/12/25 14:05:09;;;;;;;4.07;1.73;;;;;;;;;;5094290;28;20217;-73
2020/12/25 14:07:35;;;;;;;3.08;2.50;;;;;;;;;;5094686;28;20223;-74
2020/12/25 14:10:01;;;;;;;3.45;1.85;;;;;;;;;;5098095;28;20235;-74
2020/12/25 14:12:27;;;;;;;3.28;1.80;;;;;;;;;;5074531;28;20537;-73
2020/12/25 14:14:53;;;;;;;4.03;1.88;;;;;;;;;;5073457;28;20200;-74
2020/12/25 14:17:19;;;;;;;2.95;2.33;;;;;;;;;;5074072;28;20179;-73
2020/12/25 14:19:45;;;;;;;3.20;1.83;;;;;;;;;;5073853;28;20196;-71
2020/12/25 14:22:11;;;;;;;3.60;1.75;;;;;;;;;;5074118;28;20173;-74
2020/12/25 14:24:37;;;;;;;6.75;1.67;;;;;;;;;;5073512;28;20183;-72
2020/12/25 14:27:03;;;;;;;5.95;1.88;;;;;;;;;;5073892;28;20621;-74
2020/12/25 14:29:29;;;;;;;4.35;1.90;;;;;;;;;;5089538;28;20190;-75
2020/12/25 14:31:55;;;;;;;3.45;1.80;;;;;;;;;;5092735;28;20179;-75
2020/12/25 14:34:22;;;;;;;2.83;1.80;;;;;;;;;;5093553;28;20202;-74
2020/12/25 14:36:51;;;;;;;4.95;1.95;;;;;;;;;;5094284;28;20178;-74
2020/12/25 14:39:17;;;;;;;3.42;1.70;;;;;;;;;;5093700;28;20199;-73